createdAt,value
2022-09-10T00:01:47.378Z,8.25
2022-09-10T00:04:15.846Z,8.07
2022-09-10T00:06:43.179Z,7.95
2022-09-10T00:09:17.412Z,7.55
2022-09-10T00:11:45.725Z,7.65
2022-09-10T00:14:15.414Z,7.70
2022-09-10T00:16:49.308Z,7.85
2022-09-10T00:19:16.768Z,7.40
2022-09-10T00:21:47.098Z,8.20
2022-09-10T00:24:21.339Z,8.00
2022-09-10T00:27:08.112Z,7.68
2022-09-10T00:29:42.339Z,8.05
2022-09-10T00:32:09.969Z,7.95
2022-09-10T00:37:11.332Z,7.97
2022-09-10T00:39:39.051Z,8.00
2022-09-10T00:42:06.290Z,8.00
2022-09-10T00:44:43.195Z,7.50
2022-09-10T00:47:14.606Z,8.40
2022-09-10T00:49:51.326Z,8.63
2022-09-10T00:52:18.726Z,7.55
2022-09-10T00:54:46.329Z,7.43
2022-09-10T00:59:49.495Z,7.82
2022-09-10T01:02:16.979Z,7.68
2022-09-10T01:04:51.350Z,7.60
2022-09-10T01:07:21.472Z,7.60
2022-09-10T01:09:48.802Z,7.88
2022-09-10T01:12:42.373Z,8.35
2022-09-10T01:15:15.836Z,8.35
2022-09-10T01:18:02.460Z,8.15
2022-09-10T01:20:35.467Z,7.68
2022-09-10T01:23:21.431Z,7.95
2022-09-10T01:26:04.228Z,7.60
2022-09-10T01:29:10.369Z,7.13
2022-09-10T01:31:54.920Z,7.35
2022-09-10T01:34:36.249Z,7.22
2022-09-10T01:37:09.759Z,7.10
2022-09-10T01:39:45.466Z,7.10
2022-09-10T01:42:12.741Z,7.13
2022-09-10T01:44:54.480Z,7.57
2022-09-10T01:47:31.452Z,7.00
2022-09-10T01:50:28.347Z,7.47
2022-09-10T01:53:19.276Z,7.10
2022-09-10T01:55:56.410Z,6.85
2022-09-10T01:58:43.444Z,7.53
2022-09-10T02:01:18.405Z,7.63
2022-09-10T02:03:47.876Z,7.57
2022-09-10T02:06:16.467Z,7.15
2022-09-10T02:08:52.365Z,7.80
2022-09-10T02:11:19.812Z,6.78
2022-09-10T02:13:46.943Z,7.32
2022-09-10T02:16:23.413Z,7.68
2022-09-10T02:18:50.670Z,7.63
2022-09-10T02:21:18.185Z,7.50
2022-09-10T02:23:53.388Z,7.32
2022-09-10T02:26:20.567Z,7.40
2022-09-10T02:29:01.360Z,7.93
2022-09-10T02:31:28.664Z,7.50
2022-09-10T02:33:55.791Z,7.88
2022-09-10T02:36:32.406Z,7.68
2022-09-10T02:39:00.366Z,7.75
2022-09-10T02:41:27.861Z,7.90
2022-09-10T02:44:02.373Z,7.50
2022-09-10T02:46:29.840Z,7.85
2022-09-10T02:48:57.024Z,8.20
2022-09-10T02:51:32.000Z,7.82
2022-09-10T02:53:59.208Z,8.05
2022-09-10T02:56:26.312Z,7.97
2022-09-10T02:59:00.347Z,8.07
2022-09-10T03:01:28.488Z,8.27
2022-09-10T03:03:56.739Z,7.47
2022-09-10T03:06:31.363Z,7.63
2022-09-10T03:08:58.568Z,8.27
2022-09-10T03:11:27.443Z,8.68
2022-09-10T03:14:01.352Z,8.80
2022-09-10T03:16:28.580Z,7.85
2022-09-10T03:18:55.718Z,8.15
2022-09-10T03:21:31.389Z,8.13
2022-09-10T03:23:58.565Z,8.63
2022-09-10T03:26:25.858Z,8.30
2022-09-10T03:29:05.364Z,7.90
2022-09-10T03:31:32.512Z,8.10
2022-09-10T03:33:59.727Z,7.43
2022-09-10T03:36:38.374Z,8.23
2022-09-10T03:39:05.809Z,6.88
2022-09-10T03:41:33.059Z,7.45
2022-09-10T03:44:07.421Z,7.57
2022-09-10T03:46:34.967Z,6.80
2022-09-10T03:49:02.374Z,7.85
2022-09-10T03:51:37.388Z,7.40
2022-09-10T03:54:06.083Z,6.93
2022-09-10T03:56:34.014Z,6.97
2022-09-10T03:59:08.431Z,6.97
2022-09-10T04:01:35.681Z,6.78
2022-09-10T04:04:03.116Z,6.90
2022-09-10T04:06:39.420Z,6.80
2022-09-10T04:09:06.796Z,6.53
2022-09-10T04:11:33.978Z,6.53
2022-09-10T04:14:08.519Z,6.35
2022-09-10T04:16:35.920Z,6.40
2022-09-10T04:19:03.170Z,6.15
2022-09-10T04:21:38.429Z,6.18
2022-09-10T04:24:06.354Z,6.40
2022-09-10T04:26:33.468Z,6.00
2022-09-10T04:29:14.519Z,5.93
2022-09-10T04:31:42.292Z,6.05
2022-09-10T04:34:09.562Z,5.97
2022-09-10T04:36:43.408Z,6.72
2022-09-10T04:39:10.612Z,6.63
2022-09-10T04:41:37.774Z,7.13
2022-09-10T04:44:11.386Z,6.15
2022-09-10T04:46:38.620Z,6.88
2022-09-10T04:49:05.819Z,7.82
2022-09-10T04:51:40.509Z,7.13
2022-09-10T04:54:07.738Z,6.85
2022-09-10T04:56:34.975Z,6.32
2022-09-10T04:59:09.728Z,6.55
2022-09-10T05:01:37.094Z,7.03
2022-09-10T05:04:04.461Z,6.47
2022-09-10T05:06:38.427Z,5.22
2022-09-10T05:09:05.851Z,6.22
2022-09-10T05:11:32.969Z,6.15
2022-09-10T05:14:06.432Z,5.10
2022-09-10T05:16:33.673Z,5.03
2022-09-10T05:19:00.835Z,6.15
2022-09-10T05:21:35.353Z,5.22
2022-09-10T05:24:02.681Z,5.45
2022-09-10T05:26:29.830Z,5.72
2022-09-10T05:29:06.451Z,5.38
2022-09-10T05:31:34.038Z,5.40
2022-09-10T05:36:41.471Z,5.95
2022-09-10T05:39:08.952Z,5.88
2022-09-10T05:41:37.278Z,6.07
2022-09-10T05:44:11.535Z,6.43
2022-09-10T05:46:38.768Z,6.25
2022-09-10T05:49:05.871Z,6.15
2022-09-10T05:51:39.646Z,6.78
2022-09-10T05:54:06.917Z,5.90
2022-09-10T05:56:34.759Z,6.10
2022-09-10T05:59:10.565Z,6.20
2022-09-10T06:01:38.312Z,5.65
2022-09-10T06:04:05.394Z,6.43
2022-09-10T06:06:39.657Z,5.90
2022-09-10T06:09:06.885Z,6.55
2022-09-10T06:11:34.157Z,6.53
2022-09-10T06:14:08.461Z,5.53
2022-09-10T06:16:35.745Z,6.30
2022-09-10T06:19:02.950Z,6.88
2022-09-10T06:21:36.461Z,5.70
2022-09-10T06:24:03.631Z,7.20
2022-09-10T06:26:30.715Z,5.70
2022-09-10T06:29:04.529Z,6.13
2022-09-10T06:31:32.071Z,6.38
2022-09-10T06:33:59.202Z,5.63
2022-09-10T06:36:35.466Z,6.07
2022-09-10T06:39:04.381Z,6.40
2022-09-10T06:41:31.734Z,6.63
2022-09-10T06:44:05.474Z,5.95
2022-09-10T06:47:08.384Z,7.15
2022-09-10T06:49:26.582Z,5.38
2022-09-10T06:51:53.909Z,6.43
2022-09-10T06:54:21.006Z,5.93
2022-09-10T06:56:57.506Z,5.80
2022-09-10T06:59:24.742Z,5.72
2022-09-10T07:01:52.019Z,5.30
2022-09-10T07:04:25.516Z,5.38
2022-09-10T07:06:53.207Z,5.15
2022-09-10T07:09:20.996Z,4.82
2022-09-10T07:11:55.668Z,4.93
2022-09-10T07:14:22.828Z,5.10
2022-09-10T07:16:51.415Z,4.53
2022-09-10T07:19:25.484Z,4.65
2022-09-10T07:21:52.722Z,4.85
2022-09-10T07:24:21.387Z,5.00
2022-09-10T07:26:55.474Z,4.25
2022-09-10T07:29:42.243Z,4.40
2022-09-10T07:32:16.567Z,4.82
2022-09-10T07:34:47.238Z,4.78
2022-09-10T07:37:15.820Z,4.20
2022-09-10T07:39:49.588Z,4.78
2022-09-10T07:42:16.950Z,4.82
2022-09-10T07:44:44.229Z,4.13
2022-09-10T07:47:18.544Z,4.40
2022-09-10T07:49:45.739Z,3.80
2022-09-10T07:52:13.458Z,4.10
2022-09-10T07:54:51.687Z,4.38
2022-09-10T07:59:45.925Z,3.95
2022-09-10T08:02:22.720Z,4.43
2022-09-10T08:04:56.287Z,4.13
2022-09-10T08:07:38.621Z,4.38
2022-09-10T08:10:07.604Z,4.30
2022-09-10T08:12:34.780Z,4.28
2022-09-10T08:15:08.589Z,4.35
2022-09-10T08:17:36.796Z,4.40
2022-09-10T08:20:15.366Z,4.15
2022-09-10T08:22:42.630Z,4.47
2022-09-10T08:25:09.852Z,4.43
2022-09-10T08:27:43.487Z,3.83
2022-09-10T08:30:17.352Z,4.30
2022-09-10T08:32:51.477Z,3.88
2022-09-10T08:35:19.356Z,4.40
2022-09-10T08:37:46.447Z,3.90
2022-09-10T08:40:21.585Z,4.00
2022-09-10T08:42:50.165Z,4.35
2022-09-10T08:45:20.072Z,4.28
2022-09-10T08:48:13.784Z,3.97
2022-09-10T08:50:45.346Z,4.50
2022-09-10T08:53:34.630Z,3.78
2022-09-10T08:56:05.241Z,4.30
2022-09-10T08:58:57.551Z,3.60
2022-09-10T09:01:45.214Z,3.83
2022-09-10T09:04:25.550Z,3.50
2022-09-10T09:06:54.712Z,3.58
2022-09-10T09:09:22.254Z,3.92
2022-09-10T09:14:41.111Z,3.83
2022-09-10T09:17:38.757Z,3.40
2022-09-10T09:20:14.422Z,3.50
2022-09-10T09:22:52.543Z,3.53
2022-09-10T09:25:22.923Z,3.72
2022-09-10T09:28:07.554Z,3.63
2022-09-10T09:30:37.192Z,3.80
2022-09-10T09:33:18.521Z,3.58
2022-09-10T09:35:48.570Z,3.80
2022-09-10T09:38:30.503Z,3.60
2022-09-10T09:41:03.813Z,3.60
2022-09-10T09:43:49.680Z,3.53
2022-09-10T09:46:18.567Z,3.65
2022-09-10T09:48:46.064Z,3.65
2022-09-10T09:51:21.615Z,3.53
2022-09-10T09:54:06.360Z,3.63
2022-09-10T09:56:51.587Z,3.72
2022-09-10T09:59:26.946Z,3.42
2022-09-10T10:02:01.663Z,3.28
2022-09-10T10:04:33.894Z,3.25
2022-09-10T10:07:09.615Z,3.55
2022-09-10T10:09:40.778Z,3.55
2022-09-10T10:12:21.641Z,3.78
2022-09-10T10:14:49.174Z,4.13
2022-09-10T10:17:43.606Z,4.13
2022-09-10T10:20:14.676Z,3.80
2022-09-10T10:22:42.899Z,3.72
2022-09-10T10:25:49.600Z,3.80
2022-09-10T10:28:40.390Z,3.70
2022-09-10T10:31:14.638Z,3.75
2022-09-10T10:33:53.355Z,3.53
2022-09-10T10:36:27.569Z,3.60
2022-09-10T10:39:09.848Z,2.97
2022-09-10T10:41:49.927Z,3.45
2022-09-10T10:44:28.974Z,3.30
2022-09-10T10:47:22.612Z,3.65
2022-09-10T10:49:53.640Z,3.30
2022-09-10T10:52:41.635Z,3.70
2022-09-10T10:55:20.920Z,3.23
2022-09-10T10:58:13.646Z,2.58
2022-09-10T11:00:43.640Z,2.40
2022-09-10T11:03:22.516Z,3.17
2022-09-10T11:05:53.090Z,3.08
2022-09-10T11:08:33.579Z,2.70
2022-09-10T11:11:03.442Z,2.72
2022-09-10T11:13:43.595Z,2.63
2022-09-10T11:16:20.071Z,2.42
2022-09-10T11:19:09.596Z,2.65
2022-09-10T11:21:49.572Z,2.60
2022-09-10T11:24:36.516Z,2.88
2022-09-10T11:27:40.321Z,2.60
2022-09-10T11:30:25.651Z,3.00
2022-09-10T11:33:03.010Z,2.65
2022-09-10T11:35:39.553Z,3.13
2022-09-10T11:38:12.994Z,3.25
2022-09-10T11:40:50.539Z,2.90
2022-09-10T11:43:38.009Z,3.00
2022-09-10T11:46:16.975Z,3.05
2022-09-10T11:48:47.794Z,3.08
2022-09-10T11:51:29.952Z,3.08
2022-09-10T11:53:57.724Z,2.80
2022-09-10T11:56:27.673Z,3.25
2022-09-10T11:59:13.694Z,3.03
2022-09-10T12:01:49.940Z,3.10
2022-09-10T12:04:39.860Z,2.63
2022-09-10T12:07:20.498Z,2.70
2022-09-10T12:10:14.568Z,2.33
2022-09-10T12:12:46.296Z,2.60
2022-09-10T12:15:31.667Z,2.20
2022-09-10T12:18:04.496Z,2.35
2022-09-10T12:20:40.583Z,1.80
2022-09-10T12:23:07.806Z,2.22
2022-09-10T12:25:35.115Z,2.08
2022-09-10T12:28:12.635Z,1.75
2022-09-10T12:30:46.465Z,1.92
2022-09-10T12:33:20.578Z,1.83
2022-09-10T12:35:48.878Z,1.80
2022-09-10T12:38:43.012Z,2.13
2022-09-10T12:41:12.246Z,1.92
2022-09-10T12:43:39.866Z,2.00
2022-09-10T12:46:16.798Z,1.73
2022-09-10T12:48:45.678Z,2.33
2022-09-10T12:51:25.557Z,2.10
2022-09-10T12:54:05.028Z,1.95
2022-09-10T12:56:38.891Z,2.00
2022-09-10T12:59:25.032Z,2.40
2022-09-10T13:01:59.650Z,1.90
2022-09-10T13:04:29.148Z,2.15
2022-09-10T13:07:06.625Z,2.15
2022-09-10T13:09:36.657Z,1.83
2022-09-10T13:12:14.607Z,1.75
2022-09-10T13:14:46.300Z,1.95
2022-09-10T13:17:42.834Z,1.90
2022-09-10T13:20:36.251Z,1.90
2022-09-10T13:23:11.710Z,1.77
2022-09-10T13:25:41.394Z,1.80
2022-09-10T13:28:47.659Z,1.65
2022-09-10T13:31:20.272Z,1.80
2022-09-10T13:33:57.633Z,1.90
2022-09-10T13:36:43.451Z,2.23
2022-09-10T13:39:25.603Z,1.90
2022-09-10T13:41:55.486Z,1.88
2022-09-10T13:44:57.664Z,1.98
2022-09-10T13:47:46.204Z,1.85
2022-09-10T13:50:20.724Z,1.90
2022-09-10T13:52:49.848Z,1.98
2022-09-10T13:55:19.621Z,2.13
2022-09-10T13:57:55.840Z,1.95
2022-09-10T14:00:24.569Z,1.98
2022-09-10T14:03:02.669Z,2.03
2022-09-10T14:05:29.908Z,2.05
2022-09-10T14:07:58.246Z,1.90
2022-09-10T14:10:33.906Z,2.05
2022-09-10T14:13:02.132Z,1.60
2022-09-10T14:15:42.824Z,1.90
2022-09-10T14:18:10.775Z,1.83
2022-09-10T14:20:37.909Z,1.83
2022-09-10T14:23:13.674Z,2.00
2022-09-10T14:25:42.074Z,1.88
2022-09-10T14:28:32.664Z,1.90
2022-09-10T14:31:19.311Z,2.10
2022-09-10T14:33:53.625Z,1.92
2022-09-10T14:36:33.502Z,2.47
2022-09-10T14:39:09.755Z,1.80
2022-09-10T14:41:37.244Z,2.10
2022-09-10T14:44:20.681Z,2.08
2022-09-10T14:46:54.197Z,1.60
2022-09-10T14:49:33.684Z,1.90
2022-09-10T14:52:01.653Z,2.00
2022-09-10T14:54:29.642Z,2.10
2022-09-10T14:57:04.704Z,1.95
2022-09-10T14:59:36.323Z,2.17
2022-09-10T15:02:13.889Z,1.80
2022-09-10T15:04:41.122Z,1.70
2022-09-10T15:07:09.699Z,2.10
2022-09-10T15:09:43.642Z,2.22
2022-09-10T15:12:19.531Z,1.80
2022-09-10T15:14:53.657Z,2.00
2022-09-10T15:17:20.900Z,2.03
2022-09-10T15:19:48.516Z,1.50
2022-09-10T15:25:08.687Z,1.60
2022-09-10T15:27:43.696Z,1.67
2022-09-10T15:30:17.557Z,2.05
2022-09-10T15:33:01.384Z,1.90
2022-09-10T15:35:28.773Z,1.92
2022-09-10T15:37:55.947Z,2.00
2022-09-10T15:40:30.673Z,1.60
2022-09-10T15:42:57.942Z,1.70
2022-09-10T15:45:25.303Z,1.60
2022-09-10T15:47:59.701Z,1.63
2022-09-10T15:50:26.912Z,1.75
2022-09-10T15:52:54.015Z,1.63
2022-09-10T15:55:28.764Z,1.50
2022-09-10T15:57:56.079Z,1.70
2022-09-10T16:00:23.272Z,1.90
2022-09-10T16:02:59.041Z,1.77
2022-09-10T16:05:26.303Z,2.10
2022-09-10T16:07:53.402Z,1.85
2022-09-10T16:10:27.742Z,2.00
2022-09-10T16:12:54.997Z,1.90
2022-09-10T16:15:22.162Z,2.47
2022-09-10T16:17:55.736Z,2.10
2022-09-10T16:20:26.565Z,2.40
2022-09-10T16:22:54.423Z,2.55
2022-09-10T16:25:28.706Z,2.13
2022-09-10T16:27:55.980Z,1.88
2022-09-10T16:30:36.750Z,2.30
2022-09-10T16:33:03.951Z,2.03
2022-09-10T16:35:31.158Z,2.10
2022-09-10T16:38:06.731Z,1.88
2022-09-10T16:40:33.899Z,2.30
2022-09-10T16:43:00.985Z,2.13
2022-09-10T16:45:35.876Z,2.30
2022-09-10T16:48:04.452Z,2.17
2022-09-10T16:50:31.714Z,2.40
2022-09-10T16:53:08.968Z,1.83
2022-09-10T16:55:38.656Z,1.95
2022-09-10T16:58:12.674Z,2.35
2022-09-10T17:00:40.628Z,2.33
2022-09-10T17:03:08.798Z,2.33
2022-09-10T17:05:42.749Z,1.88
2022-09-10T17:08:09.952Z,2.40
2022-09-10T17:10:37.049Z,2.15
2022-09-10T17:13:11.788Z,2.65
2022-09-10T17:15:39.131Z,2.63
2022-09-10T17:18:10.004Z,2.20
2022-09-10T17:20:44.749Z,2.20
2022-09-10T17:23:13.388Z,2.65
2022-09-10T17:25:40.593Z,2.28
2022-09-10T17:28:14.721Z,2.00
2022-09-10T17:30:49.834Z,2.33
2022-09-10T17:33:27.248Z,2.58
2022-09-10T17:36:04.512Z,2.30
2022-09-10T17:38:39.742Z,2.22
2022-09-10T17:41:07.195Z,2.35
2022-09-10T17:43:38.161Z,2.28
2022-09-10T17:46:12.842Z,2.60
2022-09-10T17:48:41.048Z,2.47
2022-09-10T17:51:08.313Z,2.42
2022-09-10T17:53:42.876Z,2.97
2022-09-10T17:56:11.036Z,2.40
2022-09-10T17:58:38.392Z,2.22
2022-09-10T18:01:22.533Z,2.47
2022-09-10T18:03:50.426Z,2.60
2022-09-10T18:06:24.758Z,2.70
2022-09-10T18:08:52.003Z,2.45
2022-09-10T18:11:21.558Z,2.53
2022-09-10T18:13:59.743Z,2.35
2022-09-10T18:18:55.882Z,2.38
2022-09-10T18:21:31.883Z,2.55
2022-09-10T18:24:03.455Z,2.35
2022-09-10T19:27:56.838Z,3.03
2022-09-10T19:30:23.942Z,3.50
2022-09-10T19:32:52.335Z,3.17
2022-09-10T19:35:26.845Z,3.17
2022-09-10T19:37:54.108Z,3.17
2022-09-10T19:40:21.181Z,2.92
2022-09-10T19:42:54.948Z,3.20
2022-09-10T19:45:22.127Z,2.97
2022-09-10T19:47:49.285Z,3.00
2022-09-10T19:50:23.937Z,2.97
2022-09-10T19:52:51.819Z,2.97
2022-09-10T19:55:18.914Z,2.75
2022-09-10T19:57:52.883Z,2.95
2022-09-10T20:00:43.019Z,2.88
2022-09-10T20:03:14.989Z,3.10
2022-09-10T20:05:46.174Z,2.70
2022-09-10T20:08:13.463Z,3.00
2022-09-10T20:10:47.958Z,2.80
2022-09-10T20:13:16.549Z,2.60
2022-09-10T20:15:45.608Z,2.75
2022-09-10T20:18:19.808Z,2.85
2022-09-10T20:20:47.502Z,2.63
2022-09-10T20:23:15.455Z,2.90
2022-09-10T20:25:49.848Z,2.90
2022-09-10T20:28:23.663Z,3.05
2022-09-10T20:30:57.833Z,3.22
2022-09-10T20:33:25.016Z,3.35
2022-09-10T20:35:52.137Z,3.15
2022-09-10T20:38:27.929Z,3.55
2022-09-10T20:40:55.170Z,3.33
2022-09-10T20:43:22.267Z,3.33
2022-09-10T20:45:55.888Z,3.42
2022-09-10T20:48:23.164Z,3.50
2022-09-10T20:50:53.923Z,3.05
2022-09-10T20:53:28.085Z,3.38
2022-09-10T20:56:04.394Z,2.97
2022-09-10T20:58:41.006Z,3.58
2022-09-10T21:01:09.992Z,3.70
2022-09-10T21:03:37.187Z,3.13
2022-09-10T21:06:11.099Z,3.20
2022-09-10T21:08:38.922Z,3.50
2022-09-10T21:11:08.220Z,3.28
2022-09-10T21:13:43.106Z,3.75
2022-09-10T21:16:12.023Z,3.33
2022-09-10T21:18:41.683Z,4.10
2022-09-10T21:21:19.859Z,3.78
2022-09-10T21:23:48.088Z,4.20
2022-09-10T21:26:29.868Z,3.90
2022-09-10T21:28:58.608Z,4.20
2022-09-10T21:31:27.296Z,4.25
2022-09-10T21:34:03.619Z,3.80
2022-09-10T21:36:31.441Z,4.28
2022-09-10T21:41:43.868Z,4.22
2022-09-10T21:44:14.206Z,4.10
2022-09-10T21:46:42.481Z,4.25
2022-09-10T21:49:16.876Z,3.88
2022-09-10T21:51:44.160Z,4.28
2022-09-10T21:54:27.896Z,3.97
2022-09-10T21:56:55.928Z,4.28
2022-09-10T21:59:25.690Z,3.70
2022-09-10T22:01:59.930Z,3.45
2022-09-10T22:04:27.400Z,3.50
2022-09-10T22:06:54.979Z,3.20
2022-09-10T22:09:28.913Z,4.18
2022-09-10T22:11:57.599Z,4.13
2022-09-10T22:14:25.322Z,3.90
2022-09-10T22:17:00.083Z,3.70
2022-09-10T22:19:27.406Z,3.60
2022-09-10T22:21:56.003Z,3.83
2022-09-10T22:24:29.927Z,4.15
2022-09-10T22:27:16.836Z,4.05
2022-09-10T22:29:50.877Z,4.13
2022-09-10T22:32:18.133Z,3.67
2022-09-10T22:34:46.063Z,4.00
2022-09-10T22:37:19.887Z,3.85
2022-09-10T22:39:47.121Z,3.30
2022-09-10T22:42:15.148Z,3.78
2022-09-10T22:44:48.933Z,3.70
2022-09-10T22:47:16.100Z,2.78
2022-09-10T22:49:43.920Z,2.40
2022-09-10T22:52:18.967Z,2.28
2022-09-10T22:54:46.205Z,2.33
2022-09-10T22:57:13.639Z,2.75
2022-09-10T22:59:48.060Z,2.63
2022-09-10T23:02:15.703Z,2.30
2022-09-10T23:07:16.930Z,3.10
2022-09-10T23:09:44.181Z,2.92
2022-09-10T23:12:11.288Z,3.50
2022-09-10T23:14:45.889Z,4.30
2022-09-10T23:17:13.049Z,4.43
2022-09-10T23:19:40.149Z,3.95
2022-09-10T23:22:13.873Z,3.70
2022-09-10T23:24:41.213Z,3.47
2022-09-10T23:27:21.868Z,3.10
2022-09-10T23:29:49.045Z,2.97
2022-09-10T23:32:16.540Z,3.35
2022-09-10T23:34:50.848Z,3.30
2022-09-10T23:37:19.612Z,3.90
2022-09-10T23:39:46.755Z,3.70
2022-09-10T23:42:20.870Z,4.30
2022-09-10T23:44:48.075Z,4.40
2022-09-10T23:47:15.159Z,4.10
2022-09-10T23:49:50.003Z,2.40
2022-09-10T23:52:17.686Z,1.70
2022-09-10T23:57:18.979Z,3.10
2022-09-10T23:59:46.247Z,3.03
